sensor_id;sensor_type;location;lat;lon;timestamp;pressure;altitude;pressure_sealevel;temperature;humidity
929;BME280;451;47.988;7.842;2023-09-08T00:02:35;98589.88;;;22.06;100.00
929;BME280;451;47.988;7.842;2023-09-08T00:11:39;98595.41;;;21.88;100.00
929;BME280;451;47.988;7.842;2023-09-08T00:20:43;98598.75;;;21.67;100.00
929;BME280;451;47.988;7.842;2023-09-08T00:29:47;98599.13;;;21.87;100.00
929;BME280;451;47.988;7.842;2023-09-08T00:38:51;98594.06;;;21.74;100.00
929;BME280;451;47.988;7.842;2023-09-08T00:47:55;98600.94;;;21.70;100.00
929;BME280;451;47.988;7.842;2023-09-08T00:57:01;98615.53;;;21.91;100.00
929;BME280;451;47.988;7.842;2023-09-08T01:06:07;98601.00;;;21.58;100.00
929;BME280;451;47.988;7.842;2023-09-08T01:15:10;98605.94;;;21.78;100.00
929;BME280;451;47.988;7.842;2023-09-08T01:24:41;98608.31;;;21.63;100.00
929;BME280;451;47.988;7.842;2023-09-08T01:33:50;98617.94;;;21.36;100.00
929;BME280;451;47.988;7.842;2023-09-08T01:42:53;98603.06;;;21.16;100.00
929;BME280;451;47.988;7.842;2023-09-08T01:51:59;98606.53;;;21.05;100.00
929;BME280;451;47.988;7.842;2023-09-08T02:01:04;98602.59;;;20.96;100.00
929;BME280;451;47.988;7.842;2023-09-08T02:10:09;98608.75;;;20.97;100.00
929;BME280;451;47.988;7.842;2023-09-08T02:19:13;98601.56;;;20.85;100.00
929;BME280;451;47.988;7.842;2023-09-08T02:28:19;98595.97;;;20.99;100.00
929;BME280;451;47.988;7.842;2023-09-08T02:37:23;98576.66;;;20.97;100.00
929;BME280;451;47.988;7.842;2023-09-08T02:46:28;98584.78;;;21.02;100.00
929;BME280;451;47.988;7.842;2023-09-08T02:55:31;98592.00;;;21.01;100.00
929;BME280;451;47.988;7.842;2023-09-08T03:04:35;98593.41;;;20.69;100.00
929;BME280;451;47.988;7.842;2023-09-08T03:13:39;98596.53;;;20.89;100.00
929;BME280;451;47.988;7.842;2023-09-08T03:22:43;98594.09;;;20.87;100.00
929;BME280;451;47.988;7.842;2023-09-08T03:31:47;98598.53;;;20.70;100.00
929;BME280;451;47.988;7.842;2023-09-08T03:40:51;98603.53;;;20.67;100.00
929;BME280;451;47.988;7.842;2023-09-08T03:49:54;98599.66;;;20.74;100.00
929;BME280;451;47.988;7.842;2023-09-08T03:58:59;98599.34;;;20.82;100.00
929;BME280;451;47.988;7.842;2023-09-08T04:08:03;98603.38;;;20.62;100.00
929;BME280;451;47.988;7.842;2023-09-08T04:17:08;98615.13;;;20.61;100.00
929;BME280;451;47.988;7.842;2023-09-08T04:26:11;98620.69;;;20.59;100.00
929;BME280;451;47.988;7.842;2023-09-08T04:35:16;98607.47;;;20.52;100.00
929;BME280;451;47.988;7.842;2023-09-08T04:44:20;98616.38;;;20.46;100.00
929;BME280;451;47.988;7.842;2023-09-08T04:53:25;98619.78;;;20.53;100.00
929;BME280;451;47.988;7.842;2023-09-08T05:02:28;98623.66;;;19.98;100.00
929;BME280;451;47.988;7.842;2023-09-08T05:11:35;98625.09;;;20.12;100.00
929;BME280;451;47.988;7.842;2023-09-08T05:20:38;98627.94;;;19.99;100.00
929;BME280;451;47.988;7.842;2023-09-08T05:29:43;98619.97;;;19.81;100.00
929;BME280;451;47.988;7.842;2023-09-08T05:38:46;98639.94;;;20.08;100.00
929;BME280;451;47.988;7.842;2023-09-08T05:47:51;98578.28;;;19.98;100.00
929;BME280;451;47.988;7.842;2023-09-08T05:56:55;98636.72;;;20.47;100.00
929;BME280;451;47.988;7.842;2023-09-08T06:06:00;98651.94;;;20.47;100.00
929;BME280;451;47.988;7.842;2023-09-08T06:15:05;98661.03;;;20.81;100.00
929;BME280;451;47.988;7.842;2023-09-08T06:24:11;98663.16;;;21.49;100.00
929;BME280;451;47.988;7.842;2023-09-08T06:33:14;98674.31;;;21.34;100.00
929;BME280;451;47.988;7.842;2023-09-08T06:42:20;98660.84;;;21.81;100.00
929;BME280;451;47.988;7.842;2023-09-08T06:51:30;98656.88;;;21.83;100.00
929;BME280;451;47.988;7.842;2023-09-08T07:00:36;98660.78;;;22.49;100.00
929;BME280;451;47.988;7.842;2023-09-08T07:09:39;98653.91;;;23.20;98.90
929;BME280;451;47.988;7.842;2023-09-08T07:18:44;98665.16;;;23.39;95.38
929;BME280;451;47.988;7.842;2023-09-08T07:27:49;98662.53;;;23.44;96.02
929;BME280;451;47.988;7.842;2023-09-08T07:36:56;98590.91;;;23.93;91.48
929;BME280;451;47.988;7.842;2023-09-08T07:46:00;98626.13;;;24.77;87.58
929;BME280;451;47.988;7.842;2023-09-08T07:55:05;98667.28;;;25.14;87.49
929;BME280;451;47.988;7.842;2023-09-08T08:04:08;98638.72;;;25.08;86.31
929;BME280;451;47.988;7.842;2023-09-08T08:13:13;98661.19;;;25.81;84.70
929;BME280;451;47.988;7.842;2023-09-08T08:22:16;98655.44;;;26.30;81.41
929;BME280;451;47.988;7.842;2023-09-08T08:31:20;98640.28;;;26.08;81.45
929;BME280;451;47.988;7.842;2023-09-08T08:40:23;98644.66;;;26.55;78.49
929;BME280;451;47.988;7.842;2023-09-08T08:49:30;98638.47;;;26.65;76.99
929;BME280;451;47.988;7.842;2023-09-08T08:58:35;98652.16;;;27.54;73.76
929;BME280;451;47.988;7.842;2023-09-08T09:07:41;98642.53;;;26.98;76.85
929;BME280;451;47.988;7.842;2023-09-08T09:16:45;98644.00;;;27.49;74.12
929;BME280;451;47.988;7.842;2023-09-08T09:25:51;98640.25;;;27.60;73.51
929;BME280;451;47.988;7.842;2023-09-08T09:34:54;98645.97;;;28.03;71.95
929;BME280;451;47.988;7.842;2023-09-08T09:43:59;98636.47;;;28.11;70.01
929;BME280;451;47.988;7.842;2023-09-08T09:53:08;98640.13;;;28.35;70.20
929;BME280;451;47.988;7.842;2023-09-08T10:02:14;98619.34;;;28.25;70.45
929;BME280;451;47.988;7.842;2023-09-08T10:11:19;98579.22;;;28.37;67.54
929;BME280;451;47.988;7.842;2023-09-08T10:20:26;98616.53;;;29.56;64.12
929;BME280;451;47.988;7.842;2023-09-08T10:29:31;98603.28;;;30.16;61.20
929;BME280;451;47.988;7.842;2023-09-08T10:38:36;98606.72;;;29.60;62.80
929;BME280;451;47.988;7.842;2023-09-08T10:47:54;98607.25;;;29.81;57.62
929;BME280;451;47.988;7.842;2023-09-08T10:57:00;98595.41;;;30.33;57.10
929;BME280;451;47.988;7.842;2023-09-08T11:06:04;98590.44;;;30.86;56.05
929;BME280;451;47.988;7.842;2023-09-08T11:15:10;98566.94;;;31.36;53.26
929;BME280;451;47.988;7.842;2023-09-08T11:24:13;98567.41;;;30.19;54.21
929;BME280;451;47.988;7.842;2023-09-08T11:33:20;98583.75;;;31.52;48.47
929;BME280;451;47.988;7.842;2023-09-08T11:42:27;98551.31;;;31.69;48.95
929;BME280;451;47.988;7.842;2023-09-08T11:51:32;98574.03;;;31.10;51.66
929;BME280;451;47.988;7.842;2023-09-08T12:00:35;98563.13;;;31.64;48.20
929;BME280;451;47.988;7.842;2023-09-08T12:09:41;98568.28;;;31.66;46.84
929;BME280;451;47.988;7.842;2023-09-08T12:18:44;98528.06;;;32.66;45.32
929;BME280;451;47.988;7.842;2023-09-08T12:27:50;98550.88;;;32.48;46.77
929;BME280;451;47.988;7.842;2023-09-08T12:36:55;98537.88;;;32.22;45.79
929;BME280;451;47.988;7.842;2023-09-08T12:45:59;98541.22;;;32.19;47.39
929;BME280;451;47.988;7.842;2023-09-08T12:55:03;98522.84;;;31.67;48.41
929;BME280;451;47.988;7.842;2023-09-08T13:04:08;98524.19;;;31.28;47.83
929;BME280;451;47.988;7.842;2023-09-08T13:13:11;98519.22;;;31.57;49.22
929;BME280;451;47.988;7.842;2023-09-08T13:22:16;98517.13;;;31.90;48.64
929;BME280;451;47.988;7.842;2023-09-08T13:31:19;98510.41;;;31.74;47.38
929;BME280;451;47.988;7.842;2023-09-08T13:40:23;98495.38;;;31.90;45.14
929;BME280;451;47.988;7.842;2023-09-08T13:49:26;98494.91;;;31.75;44.99
929;BME280;451;47.988;7.842;2023-09-08T13:58:31;98489.22;;;31.49;44.45
929;BME280;451;47.988;7.842;2023-09-08T14:07:34;98485.84;;;32.01;41.29
929;BME280;451;47.988;7.842;2023-09-08T14:16:39;98437.13;;;31.69;42.52
929;BME280;451;47.988;7.842;2023-09-08T14:25:42;98465.69;;;32.25;42.16
929;BME280;451;47.988;7.842;2023-09-08T14:34:48;98469.09;;;31.86;42.51
929;BME280;451;47.988;7.842;2023-09-08T14:43:51;98457.56;;;32.11;42.38
929;BME280;451;47.988;7.842;2023-09-08T14:52:56;98450.78;;;32.93;41.86
929;BME280;451;47.988;7.842;2023-09-08T15:01:59;98453.09;;;32.68;42.46
929;BME280;451;47.988;7.842;2023-09-08T15:11:04;98418.13;;;32.00;43.23
929;BME280;451;47.988;7.842;2023-09-08T15:20:08;98449.47;;;32.51;43.25
929;BME280;451;47.988;7.842;2023-09-08T15:29:12;98439.69;;;32.41;42.77
929;BME280;451;47.988;7.842;2023-09-08T15:38:17;98443.13;;;32.64;43.41
929;BME280;451;47.988;7.842;2023-09-08T15:47:23;98432.09;;;32.07;45.26
929;BME280;451;47.988;7.842;2023-09-08T15:56:26;98426.84;;;31.88;43.88
929;BME280;451;47.988;7.842;2023-09-08T16:05:31;98420.38;;;31.98;45.91
929;BME280;451;47.988;7.842;2023-09-08T16:14:34;98428.53;;;31.76;45.61
929;BME280;451;47.988;7.842;2023-09-08T16:23:38;98427.06;;;31.92;46.14
929;BME280;451;47.988;7.842;2023-09-08T16:32:42;98419.31;;;31.63;46.41
929;BME280;451;47.988;7.842;2023-09-08T16:41:46;98431.53;;;31.16;48.22
929;BME280;451;47.988;7.842;2023-09-08T16:50:50;98436.06;;;31.07;48.58
929;BME280;451;47.988;7.842;2023-09-08T16:59:54;98434.25;;;30.89;49.71
929;BME280;451;47.988;7.842;2023-09-08T17:08:58;98397.72;;;30.40;50.54
929;BME280;451;47.988;7.842;2023-09-08T17:18:05;98432.97;;;30.72;53.04
929;BME280;451;47.988;7.842;2023-09-08T17:27:08;98426.31;;;30.65;53.83
929;BME280;451;47.988;7.842;2023-09-08T17:36:13;98435.47;;;29.58;58.48
929;BME280;451;47.988;7.842;2023-09-08T17:45:16;98442.47;;;29.21;60.01
929;BME280;451;47.988;7.842;2023-09-08T17:54:21;98454.91;;;28.27;65.57
929;BME280;451;47.988;7.842;2023-09-08T18:03:24;98446.97;;;27.73;68.94
929;BME280;451;47.988;7.842;2023-09-08T18:12:29;98453.28;;;27.58;69.31
929;BME280;451;47.988;7.842;2023-09-08T18:21:32;98466.47;;;27.16;71.15
929;BME280;451;47.988;7.842;2023-09-08T18:30:37;98473.09;;;26.69;73.50
929;BME280;451;47.988;7.842;2023-09-08T18:39:40;98484.94;;;26.83;70.91
929;BME280;451;47.988;7.842;2023-09-08T18:48:45;98490.13;;;26.60;70.84
929;BME280;451;47.988;7.842;2023-09-08T18:57:49;98501.22;;;26.33;72.30
929;BME280;451;47.988;7.842;2023-09-08T19:06:54;98475.84;;;26.14;71.33
929;BME280;451;47.988;7.842;2023-09-08T19:16:01;98453.75;;;25.71;72.68
929;BME280;451;47.988;7.842;2023-09-08T19:25:06;98502.25;;;25.76;73.45
929;BME280;451;47.988;7.842;2023-09-08T19:34:11;98465.44;;;25.09;74.79
929;BME280;451;47.988;7.842;2023-09-08T19:43:16;98501.53;;;25.18;76.41
929;BME280;451;47.988;7.842;2023-09-08T19:52:19;98507.91;;;24.92;78.79
929;BME280;451;47.988;7.842;2023-09-08T20:01:24;98508.72;;;24.56;81.74
929;BME280;451;47.988;7.842;2023-09-08T20:10:27;98499.72;;;24.03;85.21
929;BME280;451;47.988;7.842;2023-09-08T20:19:31;98509.38;;;24.04;85.44
929;BME280;451;47.988;7.842;2023-09-08T20:28:35;98522.09;;;23.87;86.21
929;BME280;451;47.988;7.842;2023-09-08T20:37:39;98447.03;;;23.43;84.80
929;BME280;451;47.988;7.842;2023-09-08T20:46:43;98490.81;;;23.70;84.78
929;BME280;451;47.988;7.842;2023-09-08T20:55:49;98457.75;;;23.16;86.72
929;BME280;451;47.988;7.842;2023-09-08T21:04:53;98502.22;;;23.34;87.35
929;BME280;451;47.988;7.842;2023-09-08T21:13:57;98504.16;;;23.39;87.34
929;BME280;451;47.988;7.842;2023-09-08T21:23:01;98506.16;;;23.26;87.21
929;BME280;451;47.988;7.842;2023-09-08T21:32:06;98501.56;;;23.22;87.40
929;BME280;451;47.988;7.842;2023-09-08T21:41:10;98500.97;;;23.20;86.58
929;BME280;451;47.988;7.842;2023-09-08T21:50:15;98503.69;;;22.98;87.38
929;BME280;451;47.988;7.842;2023-09-08T21:59:18;98492.34;;;22.74;88.73
929;BME280;451;47.988;7.842;2023-09-08T22:08:23;98498.69;;;22.68;89.13
929;BME280;451;47.988;7.842;2023-09-08T22:17:26;98503.41;;;22.78;88.41
929;BME280;451;47.988;7.842;2023-09-08T22:26:38;98492.25;;;22.69;87.72
929;BME280;451;47.988;7.842;2023-09-08T22:35:41;98492.25;;;22.31;90.99
929;BME280;451;47.988;7.842;2023-09-08T22:44:47;98473.41;;;22.26;90.88
929;BME280;451;47.988;7.842;2023-09-08T22:53:50;98489.25;;;22.10;91.84
929;BME280;451;47.988;7.842;2023-09-08T23:02:55;98486.25;;;22.24;91.34
929;BME280;451;47.988;7.842;2023-09-08T23:11:58;98498.91;;;22.11;92.31
929;BME280;451;47.988;7.842;2023-09-08T23:21:03;98482.91;;;22.00;91.14
929;BME280;451;47.988;7.842;2023-09-08T23:30:08;98482.81;;;21.95;93.00
929;BME280;451;47.988;7.842;2023-09-08T23:39:13;98483.63;;;21.79;93.82
929;BME280;451;47.988;7.842;2023-09-08T23:48:16;98440.50;;;21.47;93.86
929;BME280;451;47.988;7.842;2023-09-08T23:57:21;98481.19;;;21.77;93.60
